Time;durP1;ratioP1;P1;durP2;ratioP2;P2;SDS_P1;SDS_P2;PMS_P1;PMS_P2;Temp;Humidity;BMP_temperature;BMP_pressure;BME280_temperature;BME280_humidity;BME280_pressure;Samples;Min_cycle;Max_cycle;Signal;HPM_P1;HPM_P2
2022/10/02 00:00:26;;;;;;;4.30;1.35;;;14.50;99.90;;;;;;7390747;19;20167;-79
2022/10/02 00:02:59;;;;;;;3.75;1.45;;;14.50;99.90;;;;;;7391663;19;20150;-78
2022/10/02 00:05:35;;;;;;;4.00;1.63;;;14.50;99.90;;;;;;7391966;19;20151;-77
2022/10/02 00:08:13;;;;;;;5.68;1.75;;;14.80;99.90;;;;;;7390048;19;20142;-79
2022/10/02 00:11:08;;;;;;;4.47;1.30;;;14.70;99.90;;;;;;7391902;19;20142;-79
2022/10/02 00:13:38;;;;;;;2.30;1.15;;;14.80;99.90;;;;;;7388605;19;20158;-77
2022/10/02 00:16:12;;;;;;;5.88;1.65;;;14.70;99.90;;;;;;7390586;19;20161;-78
2022/10/02 00:18:39;;;;;;;5.55;1.45;;;14.50;99.90;;;;;;7388596;19;20134;-78
2022/10/02 00:21:40;;;;;;;3.65;1.20;;;14.70;99.90;;;;;;7390497;19;20772;-77
2022/10/02 00:24:10;;;;;;;5.63;1.20;;;14.60;99.90;;;;;;7387704;19;20158;-79
2022/10/02 00:26:48;;;;;;;4.35;1.33;;;14.60;99.90;;;;;;7391039;19;20139;-79
2022/10/02 00:29:13;;;;;;;4.10;1.55;;;14.70;99.90;;;;;;7388932;19;20604;-79
2022/10/02 00:31:53;;;;;;;4.22;1.38;;;14.60;99.90;;;;;;7390980;19;20134;-79
2022/10/02 00:34:57;;;;;;;7.70;1.45;;;14.70;99.90;;;;;;7389755;19;20153;-79
2022/10/02 00:37:29;;;;;;;4.45;1.52;;;14.60;99.90;;;;;;7387502;19;20596;-80
2022/10/02 00:40:22;;;;;;;6.03;1.50;;;14.60;99.90;;;;;;7390029;19;20131;-79
2022/10/02 00:43:05;;;;;;;4.55;1.58;;;14.70;99.90;;;;;;7389445;19;20135;-78
2022/10/02 00:45:52;;;;;;;3.00;1.90;;;14.70;99.90;;;;;;7393488;19;20151;-79
2022/10/02 00:48:32;;;;;;;5.10;1.30;;;14.70;99.90;;;;;;7396441;19;20225;-80
2022/10/02 00:51:24;;;;;;;2.95;1.40;;;14.60;99.90;;;;;;7398217;19;20205;-79
2022/10/02 00:54:31;;;;;;;4.95;1.42;;;14.60;99.90;;;;;;7398414;19;20255;-79
2022/10/02 00:57:16;;;;;;;3.13;1.10;;;14.60;99.90;;;;;;7394819;19;20142;-78
2022/10/02 01:00:04;;;;;;;3.53;1.30;;;14.60;99.90;;;;;;7397785;19;20682;-80
2022/10/02 01:02:38;;;;;;;4.25;1.13;;;14.60;99.90;;;;;;7399367;19;20159;-78
2022/10/02 01:05:07;;;;;;;3.80;1.67;;;14.60;99.90;;;;;;7398007;19;20157;-78
2022/10/02 01:07:42;;;;;;;2.85;1.45;;;14.70;99.90;;;;;;7397843;19;20155;-78
2022/10/02 01:10:11;;;;;;;4.75;1.65;;;14.70;99.90;;;;;;7397702;19;20146;-78
2022/10/02 01:12:37;;;;;;;4.07;1.80;;;14.70;99.90;;;;;;7398182;19;20139;-78
2022/10/02 01:15:15;;;;;;;3.35;1.58;;;14.70;99.90;;;;;;7396561;19;20150;-79
2022/10/02 01:17:41;;;;;;;2.42;1.27;;;14.70;99.90;;;;;;7393975;19;20604;-79
2022/10/02 01:20:16;;;;;;;4.30;1.30;;;14.70;99.90;;;;;;7394895;19;20237;-79
2022/10/02 01:23:06;;;;;;;2.05;1.20;;;14.60;99.90;;;;;;7396964;19;20547;-78
2022/10/02 01:25:32;;;;;;;2.72;1.38;;;14.70;99.90;;;;;;7395580;19;20154;-79
2022/10/02 01:27:58;;;;;;;4.75;1.17;;;14.60;99.90;;;;;;7394536;19;20146;-80
2022/10/02 01:30:24;;;;;;;3.22;1.20;;;14.50;99.90;;;;;;7395145;19;20166;-79
2022/10/02 01:32:56;;;;;;;4.88;1.52;;;14.60;99.90;;;;;;7397759;19;20206;-78
2022/10/02 01:35:26;;;;;;;5.45;1.23;;;14.60;99.90;;;;;;7396001;19;20138;-79
2022/10/02 01:37:54;;;;;;;4.50;1.10;;;14.70;99.90;;;;;;7397555;19;20138;-79
2022/10/02 01:40:27;;;;;;;1.83;0.95;;;14.70;99.90;;;;;;7398482;19;20142;-79
2022/10/02 01:42:54;;;;;;;3.10;1.20;;;14.70;99.90;;;;;;7390723;19;20158;-79
2022/10/02 01:45:31;;;;;;;4.22;0.93;;;14.70;99.90;;;;;;7396957;19;20600;-80
2022/10/02 01:48:32;;;;;;;2.83;1.08;;;14.70;99.90;;;;;;7395939;19;20134;-79
2022/10/02 01:51:22;;;;;;;3.10;0.90;;;14.70;99.90;;;;;;7395294;19;20196;-78
2022/10/02 01:54:11;;;;;;;4.43;1.13;;;14.70;99.90;;;;;;7397311;19;20261;-79
2022/10/02 01:57:22;;;;;;;2.47;0.80;;;14.70;99.90;;;;;;7394324;19;20138;-79
2022/10/02 02:00:07;;;;;;;4.43;1.00;;;14.60;99.90;;;;;;7394147;19;20155;-78
2022/10/02 02:02:33;;;;;;;1.85;1.15;;;14.60;99.90;;;;;;7394488;19;20161;-79
2022/10/02 02:05:23;;;;;;;3.72;1.30;;;14.60;99.90;;;;;;7397028;19;20139;-78
2022/10/02 02:08:07;;;;;;;2.08;0.70;;;14.70;99.90;;;;;;7394845;19;20246;-80
2022/10/02 02:10:39;;;;;;;3.20;1.08;;;14.80;99.90;;;;;;7394781;19;20214;-79
2022/10/02 02:13:17;;;;;;;2.55;0.80;;;14.50;99.90;;;;;;7394800;19;20139;-78
2022/10/02 02:15:53;;;;;;;3.22;1.13;;;14.60;99.90;;;;;;7396275;19;20180;-77
2022/10/02 02:18:33;;;;;;;4.15;1.45;;;14.60;99.90;;;;;;7396132;19;20126;-84
2022/10/02 02:21:07;;;;;;;5.00;1.30;;;14.60;99.90;;;;;;7395838;19;20146;-83
2022/10/02 02:23:37;;;;;;;3.03;1.25;;;14.60;99.90;;;;;;7395596;19;20134;-84
2022/10/02 02:26:08;;;;;;;1.85;1.25;;;14.60;99.90;;;;;;7390981;19;20187;-84
2022/10/02 02:28:36;;;;;;;3.75;1.20;;;14.80;99.90;;;;;;7395338;19;20509;-82
2022/10/02 02:31:04;;;;;;;2.80;1.20;;;14.70;99.90;;;;;;7394344;19;20139;-83
2022/10/02 02:33:54;;;;;;;1.88;1.15;;;14.70;99.90;;;;;;7394328;19;20139;-83
2022/10/02 02:36:24;;;;;;;4.50;1.23;;;14.80;99.90;;;;;;7391420;19;20154;-83
2022/10/02 02:38:54;;;;;;;2.28;1.20;;;14.90;99.90;;;;;;7394720;19;20525;-82
2022/10/02 02:41:26;;;;;;;4.68;1.25;;;14.90;99.90;;;;;;7393450;19;20162;-83
2022/10/02 02:44:04;;;;;;;3.67;1.50;;;14.70;99.90;;;;;;7395094;19;20145;-83
2022/10/02 02:49:35;;;;;;;4.20;1.20;;;14.60;99.90;;;;;;7394532;19;20138;-83
2022/10/02 02:52:03;;;;;;;3.00;0.77;;;14.80;99.90;;;;;;7393946;19;20138;-83
2022/10/02 02:54:47;;;;;;;2.22;1.15;;;14.70;99.90;;;;;;7394746;19;20142;-83
2022/10/02 02:57:16;;;;;;;4.40;1.38;;;14.70;99.90;;;;;;7391283;19;20147;-82
2022/10/02 02:59:45;;;;;;;7.05;1.80;;;14.80;99.90;;;;;;7392235;19;20164;-82
2022/10/02 03:02:11;;;;;;;2.80;1.23;;;14.70;99.90;;;;;;7392331;19;20139;-83
2022/10/02 03:04:36;;;;;;;1.92;1.10;;;14.70;99.90;;;;;;7392410;19;20173;-82
2022/10/02 03:07:04;;;;;;;2.42;1.25;;;14.70;99.90;;;;;;7391752;19;20142;-82
2022/10/02 03:09:32;;;;;;;3.53;1.40;;;14.80;99.90;;;;;;7391260;19;20230;-83
2022/10/02 03:12:13;;;;;;;3.05;1.13;;;14.70;99.90;;;;;;7391410;19;20154;-82
2022/10/02 03:15:21;;;;;;;4.43;1.30;;;14.70;99.90;;;;;;7395623;19;20146;-84
2022/10/02 03:17:59;;;;;;;5.88;1.63;;;14.80;99.90;;;;;;7392198;19;20504;-82
2022/10/02 03:21:03;;;;;;;2.50;1.40;;;14.60;99.90;;;;;;7390939;19;20154;-82
2022/10/02 03:23:44;;;;;;;3.80;1.40;;;14.60;99.90;;;;;;7392631;19;20179;-83
2022/10/02 03:26:18;;;;;;;6.30;1.50;;;14.60;99.90;;;;;;7394272;19;20620;-81
2022/10/02 03:28:55;;;;;;;2.42;1.45;;;14.60;99.90;;;;;;7391018;19;20610;-83
2022/10/02 03:31:22;;;;;;;3.25;1.08;;;14.60;99.90;;;;;;7392785;19;20134;-80
2022/10/02 03:33:49;;;;;;;5.05;1.17;;;14.60;99.90;;;;;;7393698;19;20142;-83
2022/10/02 03:36:19;;;;;;;4.78;1.67;;;14.60;99.90;;;;;;7394563;19;20217;-81
2022/10/02 03:38:47;;;;;;;2.55;1.35;;;14.60;99.90;;;;;;7391943;19;20704;-82
2022/10/02 03:41:13;;;;;;;7.68;1.60;;;14.50;99.90;;;;;;7393129;19;20436;-82
2022/10/02 03:43:39;;;;;;;2.97;1.23;;;14.60;99.90;;;;;;7391249;19;20198;-82
2022/10/02 03:46:04;;;;;;;4.07;1.75;;;14.50;99.90;;;;;;7391999;19;20349;-79
2022/10/02 03:48:30;;;;;;;4.75;1.20;;;14.60;99.90;;;;;;7390708;19;20488;-83
2022/10/02 03:50:57;;;;;;;3.47;1.30;;;14.60;99.90;;;;;;7389883;19;20160;-82
2022/10/02 03:53:30;;;;;;;3.33;1.90;;;14.50;99.90;;;;;;7391027;19;20155;-82
2022/10/02 03:56:46;;;;;;;4.28;1.35;;;14.60;99.90;;;;;;7390506;19;20159;-82
2022/10/02 03:59:38;;;;;;;3.60;1.30;;;14.70;99.90;;;;;;7389695;19;20147;-84
2022/10/02 04:02:11;;;;;;;5.38;1.23;;;14.60;99.90;;;;;;7390560;19;20166;-84
2022/10/02 04:04:52;;;;;;;3.92;1.30;;;14.60;99.90;;;;;;7391399;19;20534;-84
2022/10/02 04:07:31;;;;;;;2.90;1.20;;;14.60;99.90;;;;;;7391032;19;20158;-83
2022/10/02 04:10:35;;;;;;;4.10;1.42;;;14.70;99.90;;;;;;7392888;19;20149;-83
2022/10/02 04:13:12;;;;;;;3.40;1.30;;;14.70;99.90;;;;;;7392480;19;20502;-83
2022/10/02 04:15:51;;;;;;;3.25;1.17;;;14.60;99.90;;;;;;7389230;19;20512;-84
2022/10/02 04:18:23;;;;;;;5.75;1.40;;;14.60;99.90;;;;;;7391449;19;20182;-82
2022/10/02 04:20:51;;;;;;;4.13;1.25;;;14.70;99.90;;;;;;7390329;19;20170;-82
2022/10/02 04:23:22;;;;;;;3.30;1.30;;;14.70;99.90;;;;;;7390836;19;20130;-83
2022/10/02 04:25:58;;;;;;;2.80;1.40;;;14.70;99.90;;;;;;7387899;19;20178;-83
2022/10/02 04:28:34;;;;;;;4.60;1.45;;;14.60;99.90;;;;;;7390296;19;20138;-83
2022/10/02 04:31:01;;;;;;;3.20;1.33;;;14.60;99.90;;;;;;7389465;19;20146;-84
2022/10/02 04:33:27;;;;;;;3.95;0.95;;;14.70;99.90;;;;;;7390193;19;20175;-84
2022/10/02 04:36:29;;;;;;;6.57;2.55;;;14.60;99.90;;;;;;7391876;19;20130;-83
2022/10/02 04:39:28;;;;;;;2.20;0.90;;;14.70;99.90;;;;;;7387437;19;20556;-83
2022/10/02 04:42:15;;;;;;;8.05;1.30;;;14.80;99.90;;;;;;7391579;19;20150;-84
2022/10/02 04:44:53;;;;;;;5.93;1.05;;;14.70;99.90;;;;;;7388881;19;20568;-84
2022/10/02 04:47:34;;;;;;;3.63;0.82;;;14.70;99.90;;;;;;7389308;19;20148;-84
2022/10/02 04:50:30;;;;;;;5.00;1.30;;;14.70;99.90;;;;;;7388133;19;20229;-84
2022/10/02 04:53:26;;;;;;;5.03;1.48;;;14.60;99.90;;;;;;7389841;19;20138;-82
2022/10/02 04:56:05;;;;;;;5.25;1.35;;;14.50;99.90;;;;;;7387898;19;20142;-82
2022/10/02 04:58:40;;;;;;;1.90;0.80;;;14.50;99.90;;;;;;7389888;19;20134;-84
2022/10/02 05:01:27;;;;;;;5.38;1.17;;;14.50;99.90;;;;;;7390658;19;20154;-84
2022/10/02 05:04:34;;;;;;;1.08;0.70;;;14.50;99.90;;;;;;7391981;19;20134;-84
2022/10/02 05:07:36;;;;;;;2.90;0.93;;;14.50;99.90;;;;;;7391175;19;20249;-84
2022/10/02 05:10:14;;;;;;;4.95;1.00;;;14.60;99.90;;;;;;7390602;19;20134;-82
2022/10/02 05:13:11;;;;;;;4.05;1.00;;;14.60;99.90;;;;;;7390832;19;20278;-85
2022/10/02 05:15:51;;;;;;;4.47;1.55;;;14.50;99.90;;;;;;7389882;19;20145;-83
2022/10/02 05:18:35;;;;;;;3.83;1.13;;;14.20;99.90;;;;;;7389438;19;20150;-84
2022/10/02 05:21:06;;;;;;;3.92;1.15;;;14.10;99.90;;;;;;7389297;19;20139;-84
2022/10/02 05:23:35;;;;;;;3.83;0.90;;;14.10;99.90;;;;;;7388895;19;20246;-84
2022/10/02 05:26:07;;;;;;;4.10;1.00;;;14.00;99.90;;;;;;7388184;19;20174;-84
2022/10/02 05:28:50;;;;;;;1.80;0.70;;;14.00;99.90;;;;;;7386683;19;20605;-81
2022/10/02 05:31:46;;;;;;;2.60;1.25;;;14.00;99.90;;;;;;7389767;19;20142;-83
2022/10/02 05:34:42;;;;;;;2.40;0.90;;;14.00;99.90;;;;;;7397906;19;20168;-85
2022/10/02 05:37:20;;;;;;;3.42;0.90;;;13.90;99.90;;;;;;7399475;19;20502;-84
2022/10/02 05:40:00;;;;;;;3.22;1.10;;;13.90;99.90;;;;;;7393622;19;20145;-83
2022/10/02 05:42:38;;;;;;;1.95;0.98;;;13.80;99.90;;;;;;7398751;19;20130;-84
2022/10/02 05:45:18;;;;;;;2.40;0.98;;;13.80;99.90;;;;;;7397166;19;20138;-82
2022/10/02 05:47:45;;;;;;;3.30;1.10;;;13.80;99.90;;;;;;7395574;19;20177;-83
2022/10/02 05:50:11;;;;;;;2.13;0.90;;;13.80;99.90;;;;;;7395263;19;20218;-84
2022/10/02 05:53:26;;;;;;;4.22;1.10;;;13.80;99.90;;;;;;7395604;19;20198;-83
2022/10/02 05:55:57;;;;;;;2.97;1.02;;;13.80;99.90;;;;;;7391322;19;20215;-82
2022/10/02 05:58:49;;;;;;;3.60;1.00;;;13.90;99.90;;;;;;7394712;19;20127;-85
2022/10/02 06:01:43;;;;;;;5.93;1.05;;;14.00;99.90;;;;;;7393968;19;20142;-83
2022/10/02 06:04:34;;;;;;;5.07;1.42;;;14.20;99.90;;;;;;7395987;19;20133;-85
2022/10/02 06:07:05;;;;;;;3.83;1.20;;;14.30;99.90;;;;;;7397288;19;20164;-83
2022/10/02 06:09:40;;;;;;;3.05;1.40;;;14.50;99.90;;;;;;7392876;19;20139;-85
2022/10/02 06:12:13;;;;;;;3.90;1.35;;;14.50;99.90;;;;;;7396179;19;20616;-84
2022/10/02 06:15:36;;;;;;;6.00;1.45;;;14.50;99.90;;;;;;7395745;19;20130;-84
2022/10/02 06:18:09;;;;;;;4.90;2.22;;;14.50;99.90;;;;;;7391627;19;20171;-82
2022/10/02 06:20:54;;;;;;;4.38;1.48;;;14.60;99.90;;;;;;7395467;19;20580;-83
2022/10/02 06:23:44;;;;;;;2.80;1.50;;;14.60;99.90;;;;;;7393641;19;20150;-83
2022/10/02 06:26:16;;;;;;;4.20;1.50;;;14.80;99.90;;;;;;7394782;19;20182;-84
2022/10/02 06:28:55;;;;;;;3.35;1.35;;;14.60;99.90;;;;;;7393807;19;20150;-83
2022/10/02 06:31:52;;;;;;;3.78;1.25;;;14.70;99.90;;;;;;7394753;19;20921;-84
2022/10/02 06:34:18;;;;;;;3.00;1.38;;;14.70;99.90;;;;;;7395792;19;20163;-84
2022/10/02 06:37:00;;;;;;;5.10;1.85;;;14.70;99.90;;;;;;7393736;19;20186;-84
2022/10/02 06:39:49;;;;;;;4.53;1.55;;;14.60;99.90;;;;;;7391771;19;20511;-83
2022/10/02 06:42:32;;;;;;;4.07;1.90;;;14.60;99.90;;;;;;7393068;19;20183;-84
2022/10/02 06:45:18;;;;;;;2.90;1.52;;;14.70;99.90;;;;;;7392794;19;20146;-83
2022/10/02 06:48:03;;;;;;;4.78;1.77;;;14.70;99.90;;;;;;7391168;19;20146;-80
2022/10/02 06:50:50;;;;;;;5.10;1.50;;;14.60;99.90;;;;;;7395168;19;20202;-83
2022/10/02 06:54:00;;;;;;;2.95;1.60;;;14.40;99.90;;;;;;7392794;19;20474;-83
2022/10/02 06:56:36;;;;;;;5.95;3.08;;;14.60;99.90;;;;;;7388964;19;20523;-81
2022/10/02 06:59:14;;;;;;;7.43;4.88;;;14.70;99.90;;;;;;7393904;19;20130;-81
2022/10/02 07:02:07;;;;;;;5.57;3.80;;;14.80;99.90;;;;;;7394720;19;20134;-84
2022/10/02 07:04:48;;;;;;;6.13;4.13;;;14.80;99.90;;;;;;7395896;19;20246;-81
2022/10/02 07:07:34;;;;;;;7.10;5.20;;;14.80;99.90;;;;;;7395625;19;20170;-82
2022/10/02 07:10:19;;;;;;;9.70;3.72;;;14.70;99.90;;;;;;7396983;19;20123;-84
2022/10/02 07:12:53;;;;;;;3.55;1.70;;;14.70;99.90;;;;;;7398003;19;20135;-83
2022/10/02 07:15:21;;;;;;;4.45;1.52;;;14.40;99.90;;;;;;7395160;19;20141;-82
2022/10/02 07:17:53;;;;;;;6.22;1.50;;;14.20;99.90;;;;;;7391249;19;20145;-82
2022/10/02 07:20:53;;;;;;;5.55;1.70;;;14.20;99.90;;;;;;7396904;19;20557;-82
2022/10/02 07:23:43;;;;;;;5.63;1.58;;;14.30;99.90;;;;;;7394785;19;20134;-83
2022/10/02 07:26:17;;;;;;;7.07;1.70;;;14.30;99.90;;;;;;7395096;19;20941;-82
2022/10/02 07:29:11;;;;;;;5.72;1.80;;;14.50;99.90;;;;;;7393843;19;20161;-82
2022/10/02 07:31:51;;;;;;;5.72;2.50;;;14.50;99.90;;;;;;7396494;19;20139;-83
2022/10/02 07:34:43;;;;;;;4.18;2.00;;;14.60;99.90;;;;;;7396395;19;20218;-82
2022/10/02 07:37:33;;;;;;;3.90;1.98;;;14.60;99.90;;;;;;7397736;19;20531;-82
2022/10/02 07:40:23;;;;;;;5.65;2.83;;;14.70;99.90;;;;;;7393768;19;20915;-82
2022/10/02 07:43:07;;;;;;;7.78;2.47;;;14.90;99.90;;;;;;7383138;19;20142;-82
2022/10/02 07:45:40;;;;;;;8.93;2.97;;;14.90;99.90;;;;;;7387874;19;20138;-79
2022/10/02 07:48:57;;;;;;;4.78;2.45;;;14.90;99.90;;;;;;7385042;19;20131;-83
2022/10/02 07:51:46;;;;;;;5.95;3.58;;;14.90;99.90;;;;;;7385242;19;20150;-82
2022/10/02 07:54:42;;;;;;;8.07;3.22;;;14.80;99.90;;;;;;7391368;19;20161;-83
2022/10/02 07:57:29;;;;;;;6.73;4.13;;;14.90;99.90;;;;;;7392926;19;20138;-80
2022/10/02 08:00:04;;;;;;;9.52;4.43;;;14.80;99.90;;;;;;7387804;19;20158;-82
2022/10/02 08:02:50;;;;;;;9.65;5.00;;;14.90;99.90;;;;;;7390338;19;20610;-82
2022/10/02 08:05:51;;;;;;;6.32;4.10;;;14.80;99.90;;;;;;7388221;19;20147;-78
2022/10/02 08:08:37;;;;;;;6.38;2.60;;;14.80;99.90;;;;;;7387831;19;20178;-80
2022/10/02 08:11:14;;;;;;;3.72;2.35;;;14.90;99.90;;;;;;7389320;19;20681;-82
2022/10/02 08:13:47;;;;;;;6.07;2.50;;;14.80;99.90;;;;;;7388390;19;20158;-83
2022/10/02 08:16:16;;;;;;;6.65;2.85;;;14.90;99.90;;;;;;7392307;19;20151;-82
2022/10/02 08:18:59;;;;;;;10.68;3.05;;;14.70;99.90;;;;;;7389460;19;20142;-81
2022/10/02 08:21:29;;;;;;;7.15;2.35;;;14.80;99.90;;;;;;7392553;19;20135;-82
2022/10/02 08:24:01;;;;;;;3.97;2.30;;;14.70;99.90;;;;;;7392975;19;20671;-82
2022/10/02 08:26:35;;;;;;;6.10;2.65;;;14.90;99.90;;;;;;7389831;19;20127;-83
2022/10/02 08:29:08;;;;;;;5.90;2.17;;;14.90;99.90;;;;;;7389187;19;20137;-82
2022/10/02 08:31:35;;;;;;;5.90;2.20;;;14.80;99.90;;;;;;7390307;19;20150;-80
2022/10/02 08:34:21;;;;;;;4.45;2.30;;;15.00;99.90;;;;;;7390340;19;20141;-82
2022/10/02 08:37:09;;;;;;;4.23;2.00;;;15.00;99.90;;;;;;7389854;19;20141;-83
2022/10/02 08:39:34;;;;;;;3.95;2.25;;;15.00;99.90;;;;;;7387993;19;20226;-82
2022/10/02 08:42:18;;;;;;;5.38;2.22;;;15.00;99.90;;;;;;7391096;19;20139;-81
2022/10/02 08:45:01;;;;;;;6.53;2.08;;;15.00;99.90;;;;;;7391898;19;20146;-83
2022/10/02 08:48:14;;;;;;;6.25;2.35;;;15.10;99.90;;;;;;7392516;19;20154;-81
2022/10/02 08:50:58;;;;;;;9.60;2.47;;;15.20;99.90;;;;;;7389574;19;20499;-82
2022/10/02 08:54:08;;;;;;;8.00;2.20;;;15.30;99.90;;;;;;7391065;19;20612;-81
2022/10/02 08:57:18;;;;;;;6.22;2.05;;;15.40;99.90;;;;;;7391322;19;20139;-80
2022/10/02 09:00:20;;;;;;;7.78;2.13;;;15.40;99.90;;;;;;7387629;19;20186;-83
2022/10/02 09:02:56;;;;;;;7.15;1.80;;;15.40;99.90;;;;;;7386306;19;20138;-81
2022/10/02 09:05:50;;;;;;;4.60;1.85;;;15.40;99.90;;;;;;7386309;19;20145;-82
2022/10/02 09:08:32;;;;;;;6.30;2.13;;;15.50;99.90;;;;;;7398433;19;20227;-79
2022/10/02 09:11:17;;;;;;;7.68;2.08;;;15.40;99.90;;;;;;7397889;19;20130;-78
2022/10/02 09:14:25;;;;;;;7.00;2.58;;;15.40;99.90;;;;;;7398844;19;20657;-78
2022/10/02 09:17:09;;;;;;;3.67;1.83;;;15.50;99.90;;;;;;7393012;19;20181;-78
2022/10/02 09:19:50;;;;;;;4.68;2.40;;;15.50;99.90;;;;;;7392999;19;20488;-77
2022/10/02 09:22:47;;;;;;;6.28;2.30;;;15.50;99.90;;;;;;7398412;19;20139;-79
2022/10/02 09:25:29;;;;;;;4.10;1.95;;;15.40;99.90;;;;;;7387084;19;20150;-76
2022/10/02 09:28:32;;;;;;;3.70;1.90;;;15.30;99.90;;;;;;7398420;19;20131;-80
2022/10/02 09:31:39;;;;;;;3.33;1.90;;;15.30;99.90;;;;;;7399327;19;20141;-80
2022/10/02 09:34:42;;;;;;;5.03;2.90;;;15.40;99.90;;;;;;7392037;19;20175;-77
2022/10/02 09:37:23;;;;;;;5.32;2.05;;;15.70;99.90;;;;;;7399109;19;20138;-79
2022/10/02 09:39:52;;;;;;;3.75;2.30;;;15.70;99.90;;;;;;7394979;19;20135;-77
2022/10/02 09:42:36;;;;;;;5.18;1.58;;;15.70;99.90;;;;;;7397894;19;20130;-78
2022/10/02 09:45:21;;;;;;;4.03;1.95;;;15.80;99.90;;;;;;7391553;19;20158;-77
2022/10/02 09:48:03;;;;;;;5.85;2.08;;;15.80;99.90;;;;;;7396732;19;20137;-75
2022/10/02 09:50:59;;;;;;;4.13;1.95;;;15.80;99.90;;;;;;7396249;19;20146;-76
2022/10/02 09:53:57;;;;;;;7.50;2.10;;;15.80;99.90;;;;;;7393199;19;20139;-76
2022/10/02 09:56:59;;;;;;;2.65;1.95;;;15.80;99.90;;;;;;7395119;19;20153;-76
2022/10/02 09:59:45;;;;;;;5.43;2.00;;;15.70;99.90;;;;;;7390782;19;20138;-74
2022/10/02 10:02:29;;;;;;;4.03;1.50;;;15.70;99.90;;;;;;7390397;19;20142;-75
2022/10/02 10:05:25;;;;;;;4.10;1.67;;;15.60;99.90;;;;;;7392225;19;20746;-76
2022/10/02 10:08:22;;;;;;;2.40;1.60;;;15.70;99.90;;;;;;7396027;19;20196;-75
2022/10/02 10:11:32;;;;;;;4.97;2.30;;;15.60;99.90;;;;;;7393311;19;20147;-76
2022/10/02 10:13:59;;;;;;;2.33;1.50;;;15.50;99.90;;;;;;7394667;19;20142;-77
2022/10/02 10:16:28;;;;;;;2.78;1.60;;;15.50;99.90;;;;;;7391444;19;20146;-76
2022/10/02 10:19:25;;;;;;;3.55;1.80;;;15.50;99.90;;;;;;7387870;19;20157;-75
2022/10/02 10:22:09;;;;;;;3.20;2.10;;;15.60;99.90;;;;;;7393914;19;20166;-77
2022/10/02 10:24:43;;;;;;;5.68;2.20;;;15.40;99.90;;;;;;7392528;19;20501;-82
2022/10/02 10:27:54;;;;;;;3.37;1.83;;;15.40;99.90;;;;;;7385334;19;20147;-81
2022/10/02 10:30:42;;;;;;;2.97;1.70;;;15.40;99.90;;;;;;7392558;19;20127;-84
2022/10/02 10:33:42;;;;;;;3.97;1.95;;;15.40;99.90;;;;;;7395664;19;20185;-82
2022/10/02 10:39:07;;;;;;;3.40;1.70;;;15.40;99.90;;;;;;7394876;19;20206;-85
2022/10/02 10:41:49;;;;;;;2.83;1.80;;;15.40;99.90;;;;;;7396117;19;20249;-84
2022/10/02 10:44:38;;;;;;;4.43;1.52;;;15.40;99.90;;;;;;7395202;19;20139;-83
2022/10/02 10:47:45;;;;;;;3.67;1.80;;;15.30;99.90;;;;;;7396361;19;20134;-86
2022/10/02 10:50:37;;;;;;;1.80;1.33;;;15.30;99.90;;;;;;7393962;19;20508;-82
2022/10/02 10:53:35;;;;;;;2.88;1.40;;;15.30;99.90;;;;;;7395764;19;20130;-83
2022/10/02 10:56:28;;;;;;;2.45;1.30;;;15.30;99.90;;;;;;7396573;19;20159;-87
2022/10/02 10:59:32;;;;;;;3.42;1.60;;;15.50;99.90;;;;;;7393513;19;20179;-80
2022/10/02 11:02:17;;;;;;;1.67;1.05;;;15.50;99.90;;;;;;7395284;19;20776;-82
2022/10/02 11:05:02;;;;;;;1.63;1.00;;;15.60;99.90;;;;;;7394848;19;20165;-82
2022/10/02 11:07:34;;;;;;;3.95;1.92;;;15.30;99.90;;;;;;7393418;19;20138;-83
2022/10/02 11:10:27;;;;;;;2.30;1.00;;;15.50;99.90;;;;;;7396248;19;20142;-87
2022/10/02 11:13:04;;;;;;;2.55;1.30;;;15.50;99.90;;;;;;7394327;19;20151;-81
2022/10/02 11:15:51;;;;;;;1.30;1.10;;;15.50;99.90;;;;;;7395673;19;20507;-83
2022/10/02 11:18:31;;;;;;;2.80;1.58;;;15.50;99.90;;;;;;7392157;19;20131;-83
2022/10/02 11:21:28;;;;;;;1.25;1.15;;;15.50;99.90;;;;;;7397079;19;20130;-82
2022/10/02 11:24:00;;;;;;;2.85;1.50;;;15.60;99.90;;;;;;7396546;19;20641;-83
2022/10/02 11:26:36;;;;;;;1.85;1.17;;;15.70;99.90;;;;;;7397239;19;20158;-82
2022/10/02 11:29:33;;;;;;;1.98;0.80;;;15.70;99.90;;;;;;7394747;19;20490;-83
2022/10/02 11:32:18;;;;;;;1.10;0.80;;;15.60;99.90;;;;;;7395314;19;20146;-80
2022/10/02 11:35:18;;;;;;;1.73;1.30;;;15.60;99.90;;;;;;7394406;19;20135;-82
2022/10/02 11:37:59;;;;;;;0.70;0.70;;;15.60;99.90;;;;;;7395819;19;20143;-80
2022/10/02 11:40:46;;;;;;;2.15;0.80;;;15.50;99.90;;;;;;7392612;19;20134;-82
2022/10/02 11:43:26;;;;;;;1.70;0.90;;;15.40;99.90;;;;;;7395072;19;20155;-80
2022/10/02 11:46:20;;;;;;;0.98;0.70;;;15.50;99.90;;;;;;7399032;19;20130;-81
2022/10/02 11:49:19;;;;;;;1.30;0.70;;;15.50;99.90;;;;;;7392954;19;20200;-80
2022/10/02 11:52:15;;;;;;;0.63;0.63;;;15.50;99.90;;;;;;7395910;19;20162;-83
2022/10/02 11:55:13;;;;;;;0.85;0.63;;;15.50;99.90;;;;;;7393710;19;20170;-84
2022/10/02 11:58:04;;;;;;;1.40;0.80;;;15.50;99.90;;;;;;7393126;19;20166;-83
2022/10/02 12:00:51;;;;;;;0.85;0.60;;;15.50;99.90;;;;;;7397114;19;20206;-82
2022/10/02 12:03:34;;;;;;;0.52;0.52;;;15.40;99.90;;;;;;7393239;19;20142;-81
2022/10/02 12:06:20;;;;;;;1.65;0.90;;;15.40;99.90;;;;;;7395201;19;20134;-82
2022/10/02 12:09:24;;;;;;;0.63;0.60;;;15.50;99.90;;;;;;7393222;19;20145;-83
2022/10/02 12:12:21;;;;;;;1.10;0.68;;;15.60;99.90;;;;;;7391287;19;20163;-81
2022/10/02 12:15:10;;;;;;;0.55;0.52;;;15.60;99.90;;;;;;7393360;19;20134;-82
2022/10/02 12:17:53;;;;;;;0.68;0.55;;;15.70;99.90;;;;;;7388305;19;20516;-82
2022/10/02 12:27:21;;;;;;;0.70;0.50;;;15.70;99.90;;;;;;7394373;19;20175;-82
2022/10/02 12:30:18;;;;;;;0.80;0.63;;;15.60;99.90;;;;;;7394316;19;20134;-83
2022/10/02 12:33:06;;;;;;;1.85;1.40;;;15.60;99.90;;;;;;7394466;19;20165;-83
2022/10/02 12:35:43;;;;;;;1.37;0.80;;;15.50;99.90;;;;;;7393989;19;20135;-81
2022/10/02 12:38:12;;;;;;;1.15;0.70;;;15.50;99.90;;;;;;7392923;19;20210;-82
2022/10/02 12:41:06;;;;;;;2.20;1.00;;;15.40;99.90;;;;;;7392001;19;20130;-82
2022/10/02 12:44:00;;;;;;;1.98;0.85;;;15.50;99.90;;;;;;7393158;19;20143;-83
2022/10/02 12:46:35;;;;;;;2.70;0.95;;;15.50;99.90;;;;;;7395046;19;20214;-84
2022/10/02 12:49:36;;;;;;;1.37;0.80;;;15.50;99.90;;;;;;7392097;19;20145;-84
2022/10/02 12:52:14;;;;;;;1.40;0.63;;;15.40;99.90;;;;;;7395346;19;20141;-83
2022/10/02 12:55:18;;;;;;;2.20;1.00;;;15.40;99.90;;;;;;7391207;19;20138;-83
2022/10/02 12:57:54;;;;;;;1.57;1.17;;;15.50;99.90;;;;;;7394545;19;20126;-83
2022/10/02 13:00:46;;;;;;;1.75;1.33;;;15.50;99.90;;;;;;7392616;19;20134;-82
2022/10/02 13:03:46;;;;;;;0.98;0.88;;;15.40;99.90;;;;;;7391196;19;20143;-83
2022/10/02 13:06:53;;;;;;;1.17;0.95;;;15.30;99.90;;;;;;7394029;19;20130;-83
2022/10/02 13:09:45;;;;;;;1.30;0.98;;;15.30;99.90;;;;;;7393085;19;20869;-82
2022/10/02 13:12:31;;;;;;;1.00;0.80;;;15.30;99.90;;;;;;7391937;19;20142;-83
2022/10/02 13:15:15;;;;;;;3.80;2.08;;;15.30;99.90;;;;;;7395153;19;20127;-83
2022/10/02 13:17:49;;;;;;;1.52;0.90;;;15.30;99.90;;;;;;7390344;19;20166;-82
2022/10/02 13:20:26;;;;;;;0.75;0.70;;;15.30;99.90;;;;;;7393645;19;20165;-83
2022/10/02 13:23:02;;;;;;;1.48;0.88;;;15.30;99.90;;;;;;7393068;19;20221;-82
2022/10/02 13:25:53;;;;;;;1.20;0.77;;;15.30;99.90;;;;;;7391431;19;20316;-82
2022/10/02 13:28:54;;;;;;;1.33;0.93;;;15.30;99.90;;;;;;7393032;19;20141;-83
2022/10/02 13:32:12;;;;;;;1.80;0.80;;;15.20;99.90;;;;;;7392508;19;20144;-82
2022/10/02 13:35:18;;;;;;;1.07;0.90;;;15.20;99.90;;;;;;7385659;19;20676;-83
2022/10/02 13:38:05;;;;;;;1.40;0.90;;;15.20;99.90;;;;;;7388206;19;20142;-82
2022/10/02 13:40:47;;;;;;;3.00;0.80;;;15.10;99.90;;;;;;7385699;19;20176;-82
2022/10/02 13:43:39;;;;;;;1.07;0.90;;;15.30;99.90;;;;;;7379011;19;20202;-81
2022/10/02 13:46:24;;;;;;;1.20;0.90;;;15.20;99.90;;;;;;7381502;19;20146;-82
2022/10/02 13:49:02;;;;;;;1.02;0.93;;;15.30;99.90;;;;;;7380923;19;20131;-80
2022/10/02 13:51:50;;;;;;;1.90;1.58;;;15.30;99.90;;;;;;7384464;19;20206;-81
2022/10/02 13:54:37;;;;;;;1.07;0.70;;;15.40;99.90;;;;;;7392227;19;20705;-84
2022/10/02 13:57:35;;;;;;;2.17;0.90;;;15.40;99.90;;;;;;7400249;19;20135;-82
2022/10/02 14:00:33;;;;;;;1.48;1.00;;;15.30;99.90;;;;;;7399496;19;20126;-81
2022/10/02 14:03:24;;;;;;;1.80;1.00;;;15.30;99.90;;;;;;7396574;19;20504;-81
2022/10/02 14:06:20;;;;;;;4.00;0.85;;;15.40;99.90;;;;;;7398104;19;20142;-81
2022/10/02 14:08:49;;;;;;;0.80;0.70;;;15.40;99.90;;;;;;7395699;19;20134;-80
2022/10/02 14:11:20;;;;;;;1.73;1.00;;;15.40;99.90;;;;;;7397555;19;20525;-81
2022/10/02 14:14:12;;;;;;;2.05;1.02;;;15.40;99.90;;;;;;7398315;19;20473;-82
2022/10/02 14:16:41;;;;;;;0.88;0.70;;;15.30;99.90;;;;;;7394340;19;20774;-82
2022/10/02 14:19:15;;;;;;;1.33;0.70;;;15.30;99.90;;;;;;7396366;19;20139;-82
2022/10/02 14:21:53;;;;;;;1.23;1.03;;;15.40;99.90;;;;;;7397905;19;20137;-82
2022/10/02 14:28:06;;;;;;;0.70;0.50;;;15.30;99.90;;;;;;7398256;19;20194;-81